SUD1A UWGG-UTDD
Flight info
| Callsign | SUD1A |
|---|---|
| Flight time | 3h 29m |
| Altitude | 37000 |
| Route | T778 DCT MOF M161 ODIVA L162 UMZAN |
| Aircraft | A320/M-SDFGHILORVWY/S |
Departure
| Time | 2026-04-21 10:22 |
|---|---|
| Airport | Nizhny Novgorod / Strigino International Airport (UWGG) |
Arrival
| Time | 2026-04-21 13:51 |
|---|---|
| Airport | Dushanbe International Airport (UTDD) |
| Time | Latitude | Longitude | Altitude | Speed | Heading |
|---|---|---|---|---|---|
| 2026-04-21 09:54 | 56.22175 | 43.78826 | 266 ft | 0 kts | 147° |
| 2026-04-21 09:54 | 56.22174 | 43.78826 | 266 ft | 0 kts | 147° |
| 2026-04-21 09:58 | 56.22175 | 43.78826 | 266 ft | 0 kts | 147° |
| 2026-04-21 10:13 | 56.22177 | 43.78823 | 266 ft | 2 kts | 147° |
| 2026-04-21 10:13 | 56.22190 | 43.78808 | 266 ft | 2 kts | 147° |
| 2026-04-21 10:14 | 56.22203 | 43.78793 | 266 ft | 2 kts | 147° |
| 2026-04-21 10:14 | 56.22216 | 43.78778 | 266 ft | 2 kts | 147° |
| 2026-04-21 10:14 | 56.22229 | 43.78762 | 266 ft | 2 kts | 147° |
| 2026-04-21 10:14 | 56.22242 | 43.78746 | 266 ft | 2 kts | 171° |
| 2026-04-21 10:15 | 56.22247 | 43.78744 | 266 ft | 0 kts | 190° |
| 2026-04-21 10:16 | 56.22247 | 43.78743 | 266 ft | 0 kts | 190° |
| 2026-04-21 10:16 | 56.22241 | 43.78742 | 266 ft | 1 kts | 190° |
| 2026-04-21 10:16 | 56.22228 | 43.78738 | 266 ft | 2 kts | 188° |
| 2026-04-21 10:16 | 56.22208 | 43.78732 | 266 ft | 3 kts | 191° |
| 2026-04-21 10:17 | 56.22183 | 43.78722 | 266 ft | 4 kts | 192° |
| 2026-04-21 10:17 | 56.22152 | 43.78711 | 266 ft | 4 kts | 191° |
| 2026-04-21 10:17 | 56.22131 | 43.78704 | 266 ft | 6 kts | 191° |
| 2026-04-21 10:17 | 56.22086 | 43.78687 | 266 ft | 6 kts | 192° |
| 2026-04-21 10:18 | 56.22046 | 43.78673 | 266 ft | 6 kts | 191° |
| 2026-04-21 10:18 | 56.22006 | 43.78659 | 266 ft | 6 kts | 190° |
| 2026-04-21 10:18 | 56.21955 | 43.78640 | 266 ft | 10 kts | 191° |
| 2026-04-21 10:18 | 56.21868 | 43.78593 | 266 ft | 16 kts | 194° |
| 2026-04-21 10:19 | 56.21737 | 43.78545 | 266 ft | 22 kts | 192° |
| 2026-04-21 10:19 | 56.21576 | 43.78486 | 266 ft | 25 kts | 191° |
| 2026-04-21 10:19 | 56.21481 | 43.78371 | 266 ft | 15 kts | 263° |
| 2026-04-21 10:19 | 56.21500 | 43.78200 | 267 ft | 13 kts | 282° |
| 2026-04-21 10:20 | 56.21523 | 43.78059 | 268 ft | 9 kts | 320° |
| 2026-04-21 10:20 | 56.21579 | 43.78065 | 269 ft | 9 kts | 12° |
| 2026-04-21 10:20 | 56.21670 | 43.78097 | 269 ft | 24 kts | 8° |
| 2026-04-21 10:20 | 56.21772 | 43.78137 | 267 ft | 0 kts | 11° |
| 2026-04-21 10:21 | 56.21784 | 43.78141 | 267 ft | 18 kts | 11° |
| 2026-04-21 10:21 | 56.22174 | 43.78283 | 266 ft | 92 kts | 11° |
| 2026-04-21 10:21 | 56.22996 | 43.78581 | 270 ft | 147 kts | 11° |
| 2026-04-21 10:21 | 56.24101 | 43.79013 | 600 ft | 169 kts | 12° |
| 2026-04-21 10:22 | 56.25225 | 43.79442 | 1589 ft | 161 kts | 9° |
| 2026-04-21 10:22 | 56.26323 | 43.79838 | 2374 ft | 165 kts | 11° |
| 2026-04-21 10:22 | 56.27527 | 43.80270 | 2736 ft | 189 kts | 12° |
| 2026-04-21 10:22 | 56.28898 | 43.80768 | 3213 ft | 213 kts | 13° |
| 2026-04-21 10:23 | 56.29892 | 43.81131 | 3606 ft | 226 kts | 13° |
| 2026-04-21 10:23 | 56.31467 | 43.81711 | 4438 ft | 236 kts | 13° |
| 2026-04-21 10:23 | 56.33102 | 43.82309 | 5325 ft | 243 kts | 13° |
| 2026-04-21 10:23 | 56.34770 | 43.82916 | 6289 ft | 246 kts | 13° |
| 2026-04-21 10:24 | 56.36462 | 43.83533 | 7163 ft | 251 kts | 14° |
| 2026-04-21 10:24 | 56.38178 | 43.84262 | 7999 ft | 256 kts | 22° |
| 2026-04-21 10:24 | 56.39683 | 43.85981 | 8830 ft | 261 kts | 45° |
| 2026-04-21 10:24 | 56.40710 | 43.88704 | 9646 ft | 268 kts | 67° |
| 2026-04-21 10:25 | 56.41069 | 43.92032 | 10420 ft | 276 kts | 89° |
| 2026-04-21 10:25 | 56.40805 | 43.95559 | 10931 ft | 295 kts | 97° |
| 2026-04-21 10:25 | 56.40415 | 43.99344 | 11176 ft | 319 kts | 101° |
| 2026-04-21 10:25 | 56.39467 | 44.03101 | 11592 ft | 341 kts | 124° |
| 2026-04-21 10:26 | 56.37787 | 44.06204 | 12288 ft | 350 kts | 134° |
| 2026-04-21 10:26 | 56.36003 | 44.09217 | 13063 ft | 353 kts | 134° |
| 2026-04-21 10:26 | 56.34201 | 44.12272 | 13787 ft | 358 kts | 134° |
| 2026-04-21 10:26 | 56.32233 | 44.15072 | 14435 ft | 364 kts | 143° |
| 2026-04-21 10:27 | 56.30072 | 44.17518 | 15098 ft | 370 kts | 148° |
| 2026-04-21 10:27 | 56.27799 | 44.19749 | 15756 ft | 374 kts | 149° |
| 2026-04-21 10:27 | 56.25493 | 44.21979 | 16409 ft | 378 kts | 149° |
| 2026-04-21 10:27 | 56.23174 | 44.24252 | 17063 ft | 381 kts | 145° |
| 2026-04-21 10:28 | 56.21087 | 44.27164 | 17684 ft | 381 kts | 133° |
| 2026-04-21 10:28 | 56.19447 | 44.30834 | 18277 ft | 377 kts | 116° |
| 2026-04-21 10:28 | 56.18077 | 44.34877 | 18841 ft | 383 kts | 123° |
| 2026-04-21 10:28 | 56.16212 | 44.38358 | 19422 ft | 393 kts | 136° |
| 2026-04-21 10:29 | 56.13937 | 44.41147 | 19992 ft | 401 kts | 147° |
| 2026-04-21 10:29 | 56.11393 | 44.43303 | 20564 ft | 407 kts | 152° |
| 2026-04-21 10:29 | 56.08795 | 44.45376 | 21119 ft | 411 kts | 151° |
| 2026-04-21 10:29 | 56.06184 | 44.47525 | 21637 ft | 415 kts | 150° |
| 2026-04-21 10:30 | 56.03558 | 44.49721 | 22135 ft | 419 kts | 150° |
| 2026-04-21 10:30 | 56.00907 | 44.51940 | 22655 ft | 423 kts | 150° |
| 2026-04-21 10:30 | 55.98228 | 44.54162 | 23210 ft | 426 kts | 150° |
| 2026-04-21 10:30 | 55.95522 | 44.56379 | 23633 ft | 430 kts | 150° |
| 2026-04-21 10:31 | 55.92790 | 44.58598 | 24043 ft | 433 kts | 150° |
| 2026-04-21 10:31 | 55.90073 | 44.60793 | 24439 ft | 435 kts | 150° |
| 2026-04-21 10:31 | 55.87308 | 44.63025 | 24838 ft | 438 kts | 150° |
| 2026-04-21 10:31 | 55.84525 | 44.65272 | 25228 ft | 440 kts | 151° |
| 2026-04-21 10:32 | 55.81727 | 44.67531 | 25611 ft | 443 kts | 151° |
| 2026-04-21 10:32 | 55.78911 | 44.69796 | 25997 ft | 445 kts | 151° |
| 2026-04-21 10:32 | 55.76084 | 44.72069 | 26376 ft | 448 kts | 151° |
| 2026-04-21 10:32 | 55.73239 | 44.74354 | 26746 ft | 450 kts | 151° |
| 2026-04-21 10:33 | 55.70378 | 44.76654 | 27130 ft | 452 kts | 152° |
| 2026-04-21 10:33 | 55.67506 | 44.78963 | 27480 ft | 455 kts | 152° |
| 2026-04-21 10:33 | 55.64619 | 44.81274 | 27827 ft | 457 kts | 152° |
| 2026-04-21 10:33 | 55.61714 | 44.83592 | 28159 ft | 459 kts | 152° |
| 2026-04-21 10:34 | 55.58819 | 44.85998 | 28474 ft | 459 kts | 148° |
| 2026-04-21 10:34 | 55.56125 | 44.89004 | 28780 ft | 457 kts | 139° |
| 2026-04-21 10:34 | 55.53717 | 44.92644 | 29079 ft | 456 kts | 133° |
| 2026-04-21 10:34 | 55.51395 | 44.96472 | 29358 ft | 458 kts | 133° |
| 2026-04-21 10:35 | 55.49058 | 45.00312 | 29641 ft | 460 kts | 133° |
| 2026-04-21 10:35 | 55.46706 | 45.04165 | 29892 ft | 463 kts | 134° |
| 2026-04-21 10:35 | 55.44337 | 45.08026 | 30093 ft | 465 kts | 134° |
| 2026-04-21 10:35 | 55.41959 | 45.11881 | 30357 ft | 465 kts | 134° |
| 2026-04-21 10:36 | 55.39572 | 45.15732 | 30640 ft | 465 kts | 135° |
| 2026-04-21 10:36 | 55.37191 | 45.19569 | 30924 ft | 465 kts | 135° |
| 2026-04-21 10:36 | 55.34806 | 45.23412 | 31191 ft | 465 kts | 135° |
| 2026-04-21 10:36 | 55.32424 | 45.27254 | 31468 ft | 465 kts | 135° |
| 2026-04-21 10:37 | 55.30041 | 45.31103 | 31769 ft | 465 kts | 136° |
| 2026-04-21 10:37 | 55.27659 | 45.34948 | 32040 ft | 465 kts | 136° |
| 2026-04-21 10:37 | 55.25273 | 45.38787 | 32292 ft | 467 kts | 136° |
| 2026-04-21 10:37 | 55.22874 | 45.42633 | 32550 ft | 468 kts | 136° |
| 2026-04-21 10:38 | 55.20469 | 45.46475 | 32800 ft | 469 kts | 137° |
| 2026-04-21 10:38 | 55.18055 | 45.50327 | 33024 ft | 470 kts | 137° |
| 2026-04-21 10:38 | 55.15636 | 45.54183 | 33327 ft | 470 kts | 137° |
| 2026-04-21 10:38 | 55.13223 | 45.58026 | 33646 ft | 469 kts | 137° |
| 2026-04-21 10:39 | 55.10845 | 45.61806 | 33906 ft | 469 kts | 137° |
| 2026-04-21 10:39 | 55.08435 | 45.65630 | 34146 ft | 468 kts | 138° |
| 2026-04-21 10:39 | 55.06022 | 45.69457 | 34377 ft | 469 kts | 138° |
| 2026-04-21 10:39 | 55.03612 | 45.73271 | 34654 ft | 467 kts | 138° |
| 2026-04-21 10:40 | 55.01209 | 45.77067 | 34922 ft | 466 kts | 139° |
| 2026-04-21 10:40 | 54.98804 | 45.80858 | 35145 ft | 466 kts | 139° |
| 2026-04-21 10:40 | 54.96402 | 45.84635 | 35352 ft | 466 kts | 139° |
| 2026-04-21 10:40 | 54.93996 | 45.88412 | 35576 ft | 465 kts | 139° |
| 2026-04-21 10:41 | 54.91594 | 45.92176 | 35783 ft | 465 kts | 139° |
| 2026-04-21 10:41 | 54.89195 | 45.95928 | 35986 ft | 464 kts | 139° |
| 2026-04-21 10:41 | 54.86793 | 45.99679 | 36164 ft | 464 kts | 140° |
| 2026-04-21 10:41 | 54.84391 | 46.03429 | 36330 ft | 464 kts | 140° |
| 2026-04-21 10:42 | 54.81990 | 46.07166 | 36535 ft | 463 kts | 139° |
| 2026-04-21 10:42 | 54.79591 | 46.10893 | 36647 ft | 464 kts | 139° |
| 2026-04-21 10:42 | 54.77162 | 46.14561 | 36663 ft | 463 kts | 141° |
| 2026-04-21 10:43 | 54.72156 | 46.21553 | 36661 ft | 462 kts | 144° |
| 2026-04-21 10:43 | 54.67070 | 46.28352 | 36662 ft | 462 kts | 143° |
| 2026-04-21 10:44 | 54.62003 | 46.35192 | 36659 ft | 462 kts | 144° |
| 2026-04-21 10:44 | 54.56967 | 46.42099 | 36664 ft | 463 kts | 144° |
| 2026-04-21 10:45 | 54.51932 | 46.49013 | 36671 ft | 463 kts | 143° |
| 2026-04-21 10:45 | 54.46885 | 46.55897 | 36675 ft | 463 kts | 143° |
| 2026-04-21 10:46 | 54.41826 | 46.62749 | 36669 ft | 463 kts | 143° |
| 2026-04-21 10:46 | 54.36759 | 46.69582 | 36666 ft | 464 kts | 144° |
| 2026-04-21 10:47 | 54.31681 | 46.76410 | 36672 ft | 464 kts | 143° |
| 2026-04-21 10:47 | 54.26726 | 46.83486 | 36675 ft | 466 kts | 135° |
| 2026-04-21 10:48 | 54.23105 | 46.92712 | 36677 ft | 472 kts | 115° |
| 2026-04-21 10:48 | 54.20705 | 47.03163 | 36675 ft | 473 kts | 113° |
| 2026-04-21 10:49 | 54.18299 | 47.13618 | 36682 ft | 473 kts | 113° |
| 2026-04-21 10:49 | 54.15883 | 47.23986 | 36678 ft | 473 kts | 113° |
| 2026-04-21 10:50 | 54.13443 | 47.34414 | 36679 ft | 474 kts | 113° |
| 2026-04-21 10:50 | 54.11001 | 47.44840 | 36684 ft | 474 kts | 113° |
| 2026-04-21 10:51 | 54.08554 | 47.55265 | 36657 ft | 474 kts | 114° |
| 2026-04-21 10:51 | 54.06093 | 47.65706 | 36664 ft | 475 kts | 114° |
| 2026-04-21 10:52 | 54.03617 | 47.76130 | 36671 ft | 476 kts | 114° |
| 2026-04-21 10:52 | 54.01125 | 47.86555 | 36677 ft | 476 kts | 114° |
| 2026-04-21 10:53 | 53.98626 | 47.96968 | 36688 ft | 476 kts | 114° |
| 2026-04-21 10:53 | 53.96115 | 48.07380 | 36683 ft | 476 kts | 115° |
| 2026-04-21 10:54 | 53.93602 | 48.17783 | 36694 ft | 477 kts | 115° |
| 2026-04-21 10:54 | 53.91079 | 48.28184 | 36700 ft | 477 kts | 115° |
| 2026-04-21 10:55 | 53.88535 | 48.38571 | 36701 ft | 477 kts | 115° |
| 2026-04-21 10:55 | 53.85986 | 48.48948 | 36699 ft | 477 kts | 115° |
| 2026-04-21 10:56 | 53.83426 | 48.59314 | 36700 ft | 477 kts | 115° |
| 2026-04-21 10:56 | 53.80856 | 48.69677 | 36712 ft | 477 kts | 115° |
| 2026-04-21 10:57 | 53.78275 | 48.80028 | 36712 ft | 478 kts | 115° |
| 2026-04-21 10:57 | 53.75898 | 48.90521 | 36720 ft | 479 kts | 110° |
| 2026-04-21 10:58 | 53.73873 | 49.01257 | 36699 ft | 480 kts | 110° |
| 2026-04-21 10:58 | 53.71828 | 49.11987 | 36705 ft | 480 kts | 110° |
| 2026-04-21 10:59 | 53.69767 | 49.22706 | 36710 ft | 480 kts | 110° |
| 2026-04-21 10:59 | 53.67693 | 49.33422 | 36719 ft | 480 kts | 110° |
| 2026-04-21 11:00 | 53.65614 | 49.44130 | 36720 ft | 481 kts | 111° |
| 2026-04-21 11:00 | 53.63523 | 49.54830 | 36710 ft | 481 kts | 111° |
| 2026-04-21 11:01 | 53.61431 | 49.65524 | 36709 ft | 481 kts | 111° |
| 2026-04-21 11:01 | 53.59319 | 49.76214 | 36722 ft | 481 kts | 111° |
| 2026-04-21 11:02 | 53.56131 | 49.92223 | 36731 ft | 481 kts | 111° |
| 2026-04-21 11:02 | 53.53994 | 50.02886 | 36733 ft | 481 kts | 112° |
| 2026-04-21 11:03 | 53.52655 | 50.08002 | 36709 ft | 475 kts | 124° |
| 2026-04-21 11:03 | 53.50793 | 50.12529 | 36714 ft | 468 kts | 135° |
| 2026-04-21 11:03 | 53.48488 | 50.16327 | 36709 ft | 461 kts | 146° |
| 2026-04-21 11:03 | 53.45847 | 50.19290 | 36718 ft | 454 kts | 157° |
| 2026-04-21 11:04 | 53.39978 | 50.22784 | 36730 ft | 447 kts | 169° |
| 2026-04-21 11:04 | 53.34014 | 50.25498 | 36733 ft | 447 kts | 169° |
| 2026-04-21 11:05 | 53.28004 | 50.28224 | 36728 ft | 447 kts | 169° |
| 2026-04-21 11:05 | 53.21998 | 50.30950 | 36750 ft | 447 kts | 169° |
| 2026-04-21 11:06 | 53.15994 | 50.33674 | 36766 ft | 447 kts | 169° |
| 2026-04-21 11:06 | 53.09989 | 50.36385 | 36769 ft | 447 kts | 169° |
| 2026-04-21 11:07 | 53.03985 | 50.39080 | 36778 ft | 447 kts | 169° |
| 2026-04-21 11:07 | 52.97988 | 50.41767 | 36771 ft | 446 kts | 169° |
| 2026-04-21 11:08 | 52.91997 | 50.44452 | 36792 ft | 446 kts | 169° |
| 2026-04-21 11:08 | 52.86007 | 50.47130 | 36802 ft | 445 kts | 169° |
| 2026-04-21 11:09 | 52.80025 | 50.49791 | 36803 ft | 445 kts | 169° |
| 2026-04-21 11:09 | 52.74040 | 50.52444 | 36788 ft | 445 kts | 170° |
| 2026-04-21 11:10 | 52.69072 | 50.54639 | 36795 ft | 445 kts | 170° |
| 2026-04-21 11:10 | 52.63092 | 50.57276 | 36814 ft | 445 kts | 170° |
| 2026-04-21 11:11 | 52.57115 | 50.59905 | 36820 ft | 445 kts | 170° |
| 2026-04-21 11:11 | 52.50169 | 50.62964 | 36822 ft | 445 kts | 170° |
| 2026-04-21 11:12 | 52.45161 | 50.65154 | 36823 ft | 445 kts | 170° |
| 2026-04-21 11:12 | 52.39180 | 50.67758 | 36833 ft | 445 kts | 170° |
| 2026-04-21 11:13 | 52.33195 | 50.70357 | 36837 ft | 445 kts | 170° |
| 2026-04-21 11:13 | 52.27250 | 50.72927 | 36837 ft | 445 kts | 170° |
| 2026-04-21 11:14 | 52.21260 | 50.75515 | 36816 ft | 445 kts | 170° |
| 2026-04-21 11:14 | 52.15274 | 50.78098 | 36832 ft | 445 kts | 170° |
| 2026-04-21 11:15 | 52.09286 | 50.80670 | 36849 ft | 445 kts | 170° |
| 2026-04-21 11:15 | 52.03297 | 50.83238 | 36852 ft | 445 kts | 170° |
| 2026-04-21 11:16 | 51.97305 | 50.85806 | 36857 ft | 445 kts | 170° |
| 2026-04-21 11:16 | 51.91322 | 50.88368 | 36854 ft | 445 kts | 170° |
| 2026-04-21 11:17 | 51.85345 | 50.90942 | 36862 ft | 444 kts | 170° |
| 2026-04-21 11:17 | 51.79370 | 50.93512 | 36872 ft | 444 kts | 170° |
| 2026-04-21 11:18 | 51.73399 | 50.96076 | 36870 ft | 444 kts | 170° |
| 2026-04-21 11:18 | 51.67479 | 50.98973 | 36853 ft | 450 kts | 161° |
| 2026-04-21 11:19 | 51.62076 | 51.04243 | 36869 ft | 457 kts | 152° |
| 2026-04-21 11:19 | 51.56778 | 51.09886 | 36873 ft | 456 kts | 152° |
| 2026-04-21 11:20 | 51.51477 | 51.15492 | 36878 ft | 456 kts | 152° |
| 2026-04-21 11:20 | 51.46172 | 51.21079 | 36866 ft | 456 kts | 153° |
| 2026-04-21 11:21 | 51.40884 | 51.26668 | 36886 ft | 455 kts | 152° |
| 2026-04-21 11:21 | 51.35661 | 51.32274 | 36894 ft | 455 kts | 152° |
| 2026-04-21 11:22 | 51.30408 | 51.37907 | 36902 ft | 454 kts | 152° |
| 2026-04-21 11:22 | 51.25149 | 51.43494 | 36884 ft | 454 kts | 153° |
| 2026-04-21 11:23 | 51.19890 | 51.49055 | 36898 ft | 453 kts | 153° |
| 2026-04-21 11:23 | 51.14767 | 51.54957 | 36905 ft | 460 kts | 142° |
| 2026-04-21 11:24 | 51.10529 | 51.62739 | 36901 ft | 467 kts | 135° |
| 2026-04-21 11:24 | 51.06410 | 51.70710 | 36879 ft | 466 kts | 135° |
| 2026-04-21 11:25 | 51.02279 | 51.78651 | 36891 ft | 466 kts | 136° |
| 2026-04-21 11:25 | 50.98144 | 51.86567 | 36903 ft | 465 kts | 136° |
| 2026-04-21 11:26 | 50.94003 | 51.94463 | 36908 ft | 465 kts | 136° |
| 2026-04-21 11:26 | 50.89867 | 52.02344 | 36882 ft | 465 kts | 136° |
| 2026-04-21 11:27 | 50.85725 | 52.10199 | 36898 ft | 464 kts | 136° |
| 2026-04-21 11:27 | 50.81585 | 52.18036 | 36910 ft | 464 kts | 136° |
| 2026-04-21 11:28 | 50.77444 | 52.25857 | 36915 ft | 464 kts | 136° |
| 2026-04-21 11:28 | 50.73300 | 52.33660 | 36887 ft | 464 kts | 136° |
| 2026-04-21 11:29 | 50.69154 | 52.41448 | 36903 ft | 463 kts | 136° |
| 2026-04-21 11:29 | 50.65009 | 52.49230 | 36913 ft | 463 kts | 136° |
| 2026-04-21 11:30 | 50.60873 | 52.57013 | 36915 ft | 463 kts | 136° |
| 2026-04-21 11:30 | 50.56741 | 52.64797 | 36891 ft | 463 kts | 136° |
| 2026-04-21 11:31 | 50.52601 | 52.72552 | 36903 ft | 463 kts | 136° |
| 2026-04-21 11:31 | 50.48442 | 52.80278 | 36921 ft | 463 kts | 136° |
| 2026-04-21 11:32 | 50.44282 | 52.87990 | 36923 ft | 463 kts | 136° |
| 2026-04-21 11:32 | 50.40124 | 52.95704 | 36927 ft | 463 kts | 136° |
| 2026-04-21 11:33 | 50.35968 | 53.03406 | 36930 ft | 463 kts | 136° |
| 2026-04-21 11:33 | 50.31803 | 53.11090 | 36930 ft | 463 kts | 137° |
| 2026-04-21 11:34 | 50.27629 | 53.18753 | 36927 ft | 463 kts | 137° |
| 2026-04-21 11:34 | 50.23456 | 53.26409 | 36904 ft | 463 kts | 137° |
| 2026-04-21 11:35 | 50.19294 | 53.33988 | 36916 ft | 463 kts | 137° |
| 2026-04-21 11:35 | 50.15105 | 53.41612 | 36927 ft | 463 kts | 137° |
| 2026-04-21 11:36 | 50.10916 | 53.49230 | 36926 ft | 463 kts | 137° |
| 2026-04-21 11:36 | 50.06716 | 53.56828 | 36895 ft | 463 kts | 137° |
| 2026-04-21 11:37 | 50.02515 | 53.64410 | 36912 ft | 463 kts | 137° |
| 2026-04-21 11:37 | 49.98310 | 53.71991 | 36920 ft | 463 kts | 137° |
| 2026-04-21 11:38 | 49.94097 | 53.79550 | 36929 ft | 463 kts | 137° |
| 2026-04-21 11:38 | 49.89874 | 53.87086 | 36907 ft | 463 kts | 137° |
| 2026-04-21 11:39 | 49.85650 | 53.94608 | 36915 ft | 463 kts | 137° |
| 2026-04-21 11:39 | 49.81429 | 54.02132 | 36921 ft | 463 kts | 137° |
| 2026-04-21 11:40 | 49.77200 | 54.09652 | 36928 ft | 463 kts | 137° |
| 2026-04-21 11:40 | 49.72963 | 54.17151 | 36896 ft | 463 kts | 137° |
| 2026-04-21 11:41 | 49.68715 | 54.24625 | 36914 ft | 463 kts | 137° |
| 2026-04-21 11:41 | 49.64469 | 54.32097 | 36921 ft | 463 kts | 137° |
| 2026-04-21 11:42 | 49.60220 | 54.39552 | 36929 ft | 463 kts | 137° |
| 2026-04-21 11:42 | 49.55962 | 54.46992 | 36895 ft | 463 kts | 138° |
| 2026-04-21 11:43 | 49.51709 | 54.54411 | 36917 ft | 462 kts | 138° |
| 2026-04-21 11:43 | 49.47453 | 54.61802 | 36927 ft | 461 kts | 138° |
| 2026-04-21 11:44 | 49.43198 | 54.69175 | 36930 ft | 461 kts | 138° |
| 2026-04-21 11:44 | 49.38939 | 54.76534 | 36896 ft | 461 kts | 138° |
| 2026-04-21 11:45 | 49.34682 | 54.83874 | 36914 ft | 460 kts | 138° |
| 2026-04-21 11:45 | 49.30428 | 54.91191 | 36925 ft | 460 kts | 139° |
| 2026-04-21 11:46 | 49.26163 | 54.98494 | 36912 ft | 460 kts | 139° |
| 2026-04-21 11:46 | 49.21901 | 55.05782 | 36885 ft | 460 kts | 139° |
| 2026-04-21 11:47 | 49.17622 | 55.13058 | 36895 ft | 460 kts | 139° |
| 2026-04-21 11:47 | 49.13349 | 55.20325 | 36906 ft | 460 kts | 139° |
| 2026-04-21 11:48 | 49.09069 | 55.27587 | 36910 ft | 460 kts | 139° |
| 2026-04-21 11:48 | 49.04784 | 55.34834 | 36886 ft | 460 kts | 139° |
| 2026-04-21 11:49 | 49.00505 | 55.42066 | 36893 ft | 460 kts | 139° |
| 2026-04-21 11:49 | 48.96213 | 55.49280 | 36897 ft | 460 kts | 139° |
| 2026-04-21 11:50 | 48.91912 | 55.56478 | 36905 ft | 460 kts | 139° |
| 2026-04-21 11:50 | 48.87607 | 55.63674 | 36870 ft | 460 kts | 139° |
| 2026-04-21 11:51 | 48.83291 | 55.70870 | 36886 ft | 461 kts | 139° |
| 2026-04-21 11:51 | 48.78972 | 55.78058 | 36902 ft | 461 kts | 139° |
| 2026-04-21 11:52 | 48.74644 | 55.85229 | 36909 ft | 461 kts | 139° |
| 2026-04-21 11:52 | 48.70309 | 55.92382 | 36911 ft | 461 kts | 140° |
| 2026-04-21 11:53 | 48.65971 | 55.99524 | 36909 ft | 461 kts | 140° |
| 2026-04-21 11:53 | 48.61632 | 56.06657 | 36910 ft | 461 kts | 140° |
| 2026-04-21 11:54 | 48.57287 | 56.13773 | 36909 ft | 461 kts | 140° |
| 2026-04-21 11:54 | 48.53673 | 56.19671 | 36885 ft | 460 kts | 140° |
| 2026-04-21 11:55 | 48.49328 | 56.26769 | 36896 ft | 460 kts | 140° |
| 2026-04-21 11:55 | 48.44976 | 56.33844 | 36902 ft | 460 kts | 140° |
| 2026-04-21 11:56 | 48.40615 | 56.40895 | 36910 ft | 460 kts | 140° |
| 2026-04-21 11:56 | 48.36258 | 56.47928 | 36893 ft | 459 kts | 140° |
| 2026-04-21 11:57 | 48.31906 | 56.54956 | 36899 ft | 459 kts | 140° |
| 2026-04-21 11:57 | 48.27556 | 56.61969 | 36901 ft | 459 kts | 140° |
| 2026-04-21 11:58 | 48.23198 | 56.68961 | 36903 ft | 458 kts | 140° |
| 2026-04-21 11:58 | 48.18840 | 56.75934 | 36891 ft | 458 kts | 140° |
| 2026-04-21 11:59 | 48.14485 | 56.82895 | 36895 ft | 458 kts | 140° |
| 2026-04-21 11:59 | 48.10124 | 56.89843 | 36897 ft | 458 kts | 140° |
| 2026-04-21 12:00 | 48.05762 | 56.96777 | 36863 ft | 457 kts | 140° |
| 2026-04-21 12:00 | 48.01395 | 57.03690 | 36871 ft | 457 kts | 140° |
| 2026-04-21 12:01 | 47.97020 | 57.10587 | 36880 ft | 458 kts | 140° |
| 2026-04-21 12:01 | 47.92645 | 57.17484 | 36884 ft | 458 kts | 140° |
| 2026-04-21 12:02 | 47.86080 | 57.27811 | 36859 ft | 458 kts | 141° |
| 2026-04-21 12:03 | 47.81693 | 57.34678 | 36866 ft | 458 kts | 141° |
| 2026-04-21 12:03 | 47.77295 | 57.41530 | 36873 ft | 458 kts | 141° |
| 2026-04-21 12:04 | 47.72899 | 57.48375 | 36876 ft | 458 kts | 141° |
| 2026-04-21 12:04 | 47.68501 | 57.55215 | 36850 ft | 458 kts | 141° |
| 2026-04-21 12:05 | 47.64099 | 57.62044 | 36863 ft | 458 kts | 141° |
| 2026-04-21 12:05 | 47.59699 | 57.68862 | 36865 ft | 458 kts | 141° |
| 2026-04-21 12:06 | 47.55286 | 57.75652 | 36836 ft | 458 kts | 141° |
| 2026-04-21 12:06 | 47.50868 | 57.82438 | 36839 ft | 458 kts | 141° |
| 2026-04-21 12:07 | 47.46447 | 57.89220 | 36848 ft | 458 kts | 141° |
| 2026-04-21 12:07 | 47.42016 | 57.95991 | 36851 ft | 458 kts | 141° |
| 2026-04-21 12:08 | 47.37584 | 58.02755 | 36831 ft | 458 kts | 141° |
| 2026-04-21 12:08 | 47.33142 | 58.09500 | 36841 ft | 458 kts | 141° |
| 2026-04-21 12:09 | 47.28695 | 58.16241 | 36844 ft | 459 kts | 141° |
| 2026-04-21 12:09 | 47.24254 | 58.22993 | 36850 ft | 459 kts | 141° |
| 2026-04-21 12:10 | 47.19803 | 58.29720 | 36829 ft | 459 kts | 142° |
| 2026-04-21 12:10 | 47.15337 | 58.36417 | 36829 ft | 459 kts | 142° |
| 2026-04-21 12:11 | 47.10864 | 58.43116 | 36839 ft | 459 kts | 142° |
| 2026-04-21 12:11 | 47.06397 | 58.49814 | 36839 ft | 459 kts | 142° |
| 2026-04-21 12:12 | 47.01929 | 58.56507 | 36842 ft | 459 kts | 142° |
| 2026-04-21 12:12 | 46.97447 | 58.63180 | 36843 ft | 459 kts | 142° |
| 2026-04-21 12:13 | 46.92965 | 58.69845 | 36846 ft | 459 kts | 142° |
| 2026-04-21 12:13 | 46.88479 | 58.76496 | 36817 ft | 459 kts | 142° |
| 2026-04-21 12:14 | 46.83984 | 58.83122 | 36828 ft | 459 kts | 142° |
| 2026-04-21 12:14 | 46.79486 | 58.89749 | 36832 ft | 459 kts | 142° |
| 2026-04-21 12:15 | 46.74993 | 58.96369 | 36832 ft | 459 kts | 142° |
| 2026-04-21 12:15 | 46.70524 | 59.02934 | 36810 ft | 459 kts | 142° |
| 2026-04-21 12:16 | 46.66017 | 59.09524 | 36821 ft | 459 kts | 142° |
| 2026-04-21 12:16 | 46.61479 | 59.16150 | 36823 ft | 459 kts | 142° |
| 2026-04-21 12:17 | 46.56966 | 59.22725 | 36799 ft | 459 kts | 142° |
| 2026-04-21 12:17 | 46.52453 | 59.29286 | 36813 ft | 459 kts | 142° |
| 2026-04-21 12:18 | 46.47932 | 59.35833 | 36818 ft | 459 kts | 142° |
| 2026-04-21 12:18 | 46.43405 | 59.42369 | 36823 ft | 459 kts | 142° |
| 2026-04-21 12:19 | 46.38878 | 59.48898 | 36800 ft | 459 kts | 143° |
| 2026-04-21 12:19 | 46.34353 | 59.55415 | 36810 ft | 459 kts | 143° |
| 2026-04-21 12:20 | 46.29828 | 59.61927 | 36815 ft | 459 kts | 143° |
| 2026-04-21 12:20 | 46.25295 | 59.68411 | 36819 ft | 458 kts | 143° |
| 2026-04-21 12:21 | 46.20736 | 59.74840 | 36796 ft | 457 kts | 144° |
| 2026-04-21 12:21 | 46.16072 | 59.81039 | 36806 ft | 455 kts | 146° |
| 2026-04-21 12:22 | 46.11364 | 59.87152 | 36817 ft | 455 kts | 146° |
| 2026-04-21 12:22 | 46.06666 | 59.93277 | 36777 ft | 456 kts | 145° |
| 2026-04-21 12:23 | 46.01991 | 59.99437 | 36790 ft | 456 kts | 145° |
| 2026-04-21 12:23 | 45.97327 | 60.05604 | 36803 ft | 456 kts | 145° |
| 2026-04-21 12:24 | 45.92654 | 60.11748 | 36810 ft | 455 kts | 145° |
| 2026-04-21 12:24 | 45.87964 | 60.17858 | 36788 ft | 455 kts | 145° |
| 2026-04-21 12:25 | 45.83275 | 60.23961 | 36793 ft | 455 kts | 145° |
| 2026-04-21 12:25 | 45.78588 | 60.30057 | 36799 ft | 455 kts | 145° |
| 2026-04-21 12:26 | 45.73895 | 60.36149 | 36778 ft | 455 kts | 145° |
| 2026-04-21 12:26 | 45.69199 | 60.42223 | 36793 ft | 455 kts | 146° |
| 2026-04-21 12:27 | 45.64504 | 60.48292 | 36797 ft | 455 kts | 146° |
| 2026-04-21 12:27 | 45.59800 | 60.54347 | 36800 ft | 455 kts | 146° |
| 2026-04-21 12:28 | 45.55091 | 60.60385 | 36777 ft | 455 kts | 146° |
| 2026-04-21 12:28 | 45.50383 | 60.66428 | 36787 ft | 455 kts | 146° |
| 2026-04-21 12:29 | 45.45674 | 60.72467 | 36798 ft | 455 kts | 146° |
| 2026-04-21 12:29 | 45.40958 | 60.78492 | 36797 ft | 455 kts | 146° |
| 2026-04-21 12:30 | 45.36236 | 60.84497 | 36799 ft | 455 kts | 146° |
| 2026-04-21 12:30 | 45.31513 | 60.90498 | 36802 ft | 455 kts | 146° |
| 2026-04-21 12:31 | 45.26816 | 60.96446 | 36800 ft | 455 kts | 146° |
| 2026-04-21 12:31 | 45.22052 | 61.02456 | 36784 ft | 455 kts | 146° |
| 2026-04-21 12:32 | 45.17321 | 61.08424 | 36791 ft | 455 kts | 146° |
| 2026-04-21 12:32 | 45.12593 | 61.14381 | 36808 ft | 455 kts | 146° |
| 2026-04-21 12:33 | 45.07888 | 61.20287 | 36785 ft | 455 kts | 146° |
| 2026-04-21 12:33 | 45.03152 | 61.26213 | 36788 ft | 455 kts | 146° |
| 2026-04-21 12:34 | 44.98411 | 61.32134 | 36790 ft | 455 kts | 146° |
| 2026-04-21 12:34 | 44.93670 | 61.38054 | 36794 ft | 455 kts | 146° |
| 2026-04-21 12:35 | 44.88927 | 61.43958 | 36768 ft | 455 kts | 146° |
| 2026-04-21 12:35 | 44.84184 | 61.49857 | 36776 ft | 455 kts | 146° |
| 2026-04-21 12:36 | 44.79427 | 61.55743 | 36776 ft | 455 kts | 146° |
| 2026-04-21 12:36 | 44.74669 | 61.61624 | 36770 ft | 455 kts | 147° |
| 2026-04-21 12:37 | 44.70714 | 61.66498 | 36784 ft | 455 kts | 147° |
| 2026-04-21 12:37 | 44.65958 | 61.72362 | 36787 ft | 455 kts | 147° |
| 2026-04-21 12:38 | 44.61198 | 61.78212 | 36785 ft | 455 kts | 147° |
| 2026-04-21 12:38 | 44.56432 | 61.84041 | 36773 ft | 454 kts | 147° |
| 2026-04-21 12:39 | 44.51674 | 61.89861 | 36790 ft | 454 kts | 147° |
| 2026-04-21 12:39 | 44.46915 | 61.95677 | 36792 ft | 454 kts | 147° |
| 2026-04-21 12:40 | 44.42150 | 62.01462 | 36771 ft | 453 kts | 147° |
| 2026-04-21 12:40 | 44.37385 | 62.07243 | 36780 ft | 454 kts | 147° |
| 2026-04-21 12:41 | 44.32624 | 62.13031 | 36785 ft | 454 kts | 147° |
| 2026-04-21 12:41 | 44.27859 | 62.18798 | 36765 ft | 453 kts | 147° |
| 2026-04-21 12:42 | 44.23085 | 62.24547 | 36777 ft | 453 kts | 147° |
| 2026-04-21 12:42 | 44.18314 | 62.30293 | 36790 ft | 453 kts | 147° |
| 2026-04-21 12:43 | 44.13537 | 62.36025 | 36795 ft | 453 kts | 147° |
| 2026-04-21 12:43 | 44.08750 | 62.41743 | 36785 ft | 453 kts | 148° |
| 2026-04-21 12:44 | 44.03963 | 62.47448 | 36784 ft | 453 kts | 148° |
| 2026-04-21 12:44 | 43.99979 | 62.52199 | 36789 ft | 457 kts | 148° |
| 2026-04-21 12:45 | 43.96292 | 62.56575 | 36764 ft | 463 kts | 148° |
| 2026-04-21 12:45 | 43.91366 | 62.62417 | 36789 ft | 469 kts | 148° |
| 2026-04-21 12:46 | 43.86388 | 62.68311 | 36793 ft | 472 kts | 148° |
| 2026-04-21 12:46 | 43.81388 | 62.74221 | 36791 ft | 473 kts | 148° |
| 2026-04-21 12:47 | 43.76379 | 62.80127 | 36797 ft | 473 kts | 148° |
| 2026-04-21 12:47 | 43.71366 | 62.86025 | 36804 ft | 473 kts | 148° |
| 2026-04-21 12:48 | 43.66346 | 62.91923 | 36808 ft | 474 kts | 148° |
| 2026-04-21 12:48 | 43.61316 | 62.97807 | 36793 ft | 474 kts | 148° |
| 2026-04-21 12:49 | 43.56278 | 63.03692 | 36805 ft | 475 kts | 148° |
| 2026-04-21 12:49 | 43.51241 | 63.09582 | 36816 ft | 475 kts | 148° |
| 2026-04-21 12:50 | 43.46193 | 63.15466 | 36794 ft | 475 kts | 148° |
| 2026-04-21 12:50 | 43.41133 | 63.21328 | 36813 ft | 476 kts | 148° |
| 2026-04-21 12:51 | 43.36071 | 63.27199 | 36821 ft | 476 kts | 148° |
| 2026-04-21 12:51 | 43.31005 | 63.33060 | 36809 ft | 476 kts | 148° |
| 2026-04-21 12:52 | 43.25932 | 63.38923 | 36815 ft | 477 kts | 148° |
| 2026-04-21 12:52 | 43.20856 | 63.44771 | 36819 ft | 477 kts | 148° |
| 2026-04-21 12:53 | 43.15767 | 63.50601 | 36802 ft | 477 kts | 148° |
| 2026-04-21 12:53 | 43.10683 | 63.56426 | 36817 ft | 477 kts | 148° |
| 2026-04-21 12:54 | 43.05592 | 63.62250 | 36822 ft | 477 kts | 148° |
| 2026-04-21 12:54 | 43.00505 | 63.68060 | 36812 ft | 477 kts | 148° |
| 2026-04-21 12:55 | 42.95417 | 63.73862 | 36818 ft | 476 kts | 148° |
| 2026-04-21 12:55 | 42.90321 | 63.79635 | 36826 ft | 476 kts | 148° |
| 2026-04-21 12:56 | 42.85218 | 63.85393 | 36807 ft | 476 kts | 148° |
| 2026-04-21 12:56 | 42.80114 | 63.91147 | 36819 ft | 476 kts | 148° |
| 2026-04-21 12:57 | 42.75010 | 63.96900 | 36826 ft | 476 kts | 148° |
| 2026-04-21 12:57 | 42.69908 | 64.02654 | 36811 ft | 476 kts | 148° |
| 2026-04-21 12:58 | 42.64799 | 64.08381 | 36825 ft | 476 kts | 148° |
| 2026-04-21 12:58 | 42.59677 | 64.14089 | 36829 ft | 476 kts | 148° |
| 2026-04-21 12:59 | 42.54460 | 64.19569 | 36809 ft | 472 kts | 152° |
| 2026-04-21 12:59 | 42.49139 | 64.24742 | 36811 ft | 469 kts | 153° |
| 2026-04-21 13:00 | 42.43827 | 64.29870 | 36813 ft | 469 kts | 152° |
| 2026-04-21 13:00 | 42.38542 | 64.35065 | 36815 ft | 470 kts | 152° |
| 2026-04-21 13:01 | 42.33273 | 64.40289 | 36818 ft | 470 kts | 152° |
| 2026-04-21 13:01 | 42.27995 | 64.45486 | 36816 ft | 469 kts | 152° |
| 2026-04-21 13:02 | 42.22709 | 64.50657 | 36816 ft | 469 kts | 152° |
| 2026-04-21 13:02 | 42.14785 | 64.58407 | 36815 ft | 469 kts | 152° |
| 2026-04-21 13:03 | 42.09501 | 64.63572 | 36797 ft | 470 kts | 152° |
| 2026-04-21 13:03 | 42.04203 | 64.68730 | 36818 ft | 470 kts | 152° |
| 2026-04-21 13:04 | 41.98902 | 64.73875 | 36822 ft | 470 kts | 152° |
| 2026-04-21 13:04 | 41.93599 | 64.79015 | 36803 ft | 470 kts | 152° |
| 2026-04-21 13:05 | 41.88292 | 64.84137 | 36812 ft | 470 kts | 152° |
| 2026-04-21 13:05 | 41.82984 | 64.89253 | 36806 ft | 470 kts | 152° |
| 2026-04-21 13:06 | 41.77678 | 64.94377 | 36801 ft | 470 kts | 152° |
| 2026-04-21 13:06 | 41.72364 | 64.99500 | 36783 ft | 471 kts | 152° |
| 2026-04-21 13:07 | 41.67038 | 65.04619 | 36788 ft | 472 kts | 152° |
| 2026-04-21 13:07 | 41.61689 | 65.09739 | 36781 ft | 473 kts | 153° |
| 2026-04-21 13:08 | 41.56367 | 65.14824 | 36790 ft | 474 kts | 153° |
| 2026-04-21 13:08 | 41.51000 | 65.19943 | 36791 ft | 474 kts | 153° |
| 2026-04-21 13:09 | 41.45629 | 65.25051 | 36781 ft | 474 kts | 153° |
| 2026-04-21 13:09 | 41.40253 | 65.30154 | 36795 ft | 475 kts | 153° |
| 2026-04-21 13:10 | 41.34868 | 65.35259 | 36802 ft | 475 kts | 153° |
| 2026-04-21 13:10 | 41.29477 | 65.40354 | 36784 ft | 475 kts | 153° |
| 2026-04-21 13:11 | 41.24090 | 65.45442 | 36806 ft | 475 kts | 153° |
| 2026-04-21 13:11 | 41.18702 | 65.50523 | 36818 ft | 475 kts | 153° |
| 2026-04-21 13:12 | 41.13310 | 65.55594 | 36807 ft | 475 kts | 153° |
| 2026-04-21 13:12 | 41.07919 | 65.60646 | 36823 ft | 474 kts | 154° |
| 2026-04-21 13:13 | 41.02520 | 65.65674 | 36817 ft | 475 kts | 154° |
| 2026-04-21 13:13 | 40.97099 | 65.70690 | 36812 ft | 476 kts | 154° |
| 2026-04-21 13:14 | 40.91667 | 65.75695 | 36823 ft | 476 kts | 154° |
| 2026-04-21 13:14 | 40.86236 | 65.80701 | 36838 ft | 476 kts | 154° |
| 2026-04-21 13:15 | 40.80797 | 65.85709 | 36830 ft | 476 kts | 154° |
| 2026-04-21 13:15 | 40.75354 | 65.90707 | 36851 ft | 477 kts | 154° |
| 2026-04-21 13:16 | 40.69908 | 65.95701 | 36853 ft | 478 kts | 154° |
| 2026-04-21 13:16 | 40.64439 | 66.00701 | 36859 ft | 479 kts | 154° |
| 2026-04-21 13:17 | 40.58965 | 66.05705 | 36871 ft | 479 kts | 154° |
| 2026-04-21 13:17 | 40.53484 | 66.10711 | 36872 ft | 480 kts | 154° |
| 2026-04-21 13:18 | 40.48920 | 66.14857 | 36868 ft | 480 kts | 154° |
| 2026-04-21 13:18 | 40.43613 | 66.20258 | 36873 ft | 494 kts | 142° |
| 2026-04-21 13:19 | 40.38964 | 66.26967 | 36877 ft | 497 kts | 140° |
| 2026-04-21 13:19 | 40.34304 | 66.33684 | 36876 ft | 498 kts | 140° |
| 2026-04-21 13:20 | 40.29868 | 66.40054 | 36867 ft | 498 kts | 140° |
| 2026-04-21 13:20 | 40.25194 | 66.46752 | 36880 ft | 498 kts | 140° |
| 2026-04-21 13:21 | 40.20516 | 66.53436 | 36885 ft | 498 kts | 141° |
| 2026-04-21 13:21 | 40.15834 | 66.60124 | 36868 ft | 500 kts | 140° |
| 2026-04-21 13:22 | 40.11135 | 66.66844 | 36881 ft | 501 kts | 140° |
| 2026-04-21 13:22 | 40.06425 | 66.73552 | 36874 ft | 501 kts | 140° |
| 2026-04-21 13:23 | 40.01702 | 66.80254 | 36877 ft | 502 kts | 140° |
| 2026-04-21 13:23 | 39.96973 | 66.86954 | 36866 ft | 502 kts | 140° |
| 2026-04-21 13:24 | 39.92232 | 66.93652 | 36869 ft | 503 kts | 140° |
| 2026-04-21 13:24 | 39.87477 | 67.00357 | 36869 ft | 504 kts | 140° |
| 2026-04-21 13:25 | 39.82711 | 67.07065 | 36864 ft | 505 kts | 140° |
| 2026-04-21 13:25 | 39.77935 | 67.13779 | 36878 ft | 505 kts | 140° |
| 2026-04-21 13:26 | 39.73157 | 67.20471 | 36884 ft | 505 kts | 140° |
| 2026-04-21 13:26 | 39.68375 | 67.27149 | 36871 ft | 505 kts | 140° |
| 2026-04-21 13:27 | 39.63583 | 67.33821 | 36897 ft | 505 kts | 139° |
| 2026-04-21 13:27 | 39.58788 | 67.40499 | 36917 ft | 506 kts | 139° |
| 2026-04-21 13:28 | 39.53986 | 67.47170 | 36937 ft | 506 kts | 140° |
| 2026-04-21 13:28 | 39.49184 | 67.53823 | 36928 ft | 506 kts | 139° |
| 2026-04-21 13:29 | 39.44369 | 67.60478 | 36948 ft | 507 kts | 139° |
| 2026-04-21 13:29 | 39.39547 | 67.67125 | 36958 ft | 507 kts | 139° |
| 2026-04-21 13:30 | 39.34713 | 67.73778 | 36956 ft | 508 kts | 139° |
| 2026-04-21 13:30 | 39.29878 | 67.80425 | 37005 ft | 508 kts | 139° |
| 2026-04-21 13:31 | 39.25042 | 67.87060 | 37039 ft | 507 kts | 140° |
| 2026-04-21 13:31 | 39.20208 | 67.93667 | 37057 ft | 507 kts | 139° |
| 2026-04-21 13:32 | 39.15381 | 68.00261 | 37084 ft | 505 kts | 139° |
| 2026-04-21 13:32 | 39.10553 | 68.06838 | 37095 ft | 505 kts | 139° |
| 2026-04-21 13:33 | 39.05718 | 68.13405 | 37089 ft | 506 kts | 139° |
| 2026-04-21 13:33 | 39.00873 | 68.19972 | 37120 ft | 506 kts | 139° |
| 2026-04-21 13:34 | 38.96044 | 68.26506 | 37076 ft | 501 kts | 139° |
| 2026-04-21 13:34 | 38.90785 | 68.32200 | 37061 ft | 487 kts | 155° |
| 2026-04-21 13:35 | 38.84783 | 68.36092 | 36866 ft | 481 kts | 161° |
| 2026-04-21 13:35 | 38.81816 | 68.37931 | 35881 ft | 469 kts | 161° |
| 2026-04-21 13:35 | 38.78884 | 68.39751 | 34374 ft | 468 kts | 160° |
| 2026-04-21 13:36 | 38.75957 | 68.41566 | 32582 ft | 466 kts | 160° |
| 2026-04-21 13:36 | 38.73033 | 68.43373 | 30700 ft | 468 kts | 160° |
| 2026-04-21 13:36 | 38.70090 | 68.45185 | 28885 ft | 468 kts | 160° |
| 2026-04-21 13:36 | 38.67171 | 68.46986 | 27201 ft | 463 kts | 160° |
| 2026-04-21 13:37 | 38.64298 | 68.48765 | 25727 ft | 456 kts | 159° |
| 2026-04-21 13:37 | 38.61495 | 68.50593 | 24357 ft | 452 kts | 154° |
| 2026-04-21 13:37 | 38.58949 | 68.52950 | 23035 ft | 452 kts | 143° |
| 2026-04-21 13:37 | 38.56789 | 68.55857 | 21635 ft | 453 kts | 133° |
| 2026-04-21 13:38 | 38.55087 | 68.59221 | 20397 ft | 450 kts | 122° |
| 2026-04-21 13:38 | 38.53699 | 68.62744 | 19673 ft | 438 kts | 121° |
| 2026-04-21 13:38 | 38.52339 | 68.66196 | 19161 ft | 432 kts | 122° |
| 2026-04-21 13:38 | 38.50990 | 68.69598 | 18599 ft | 428 kts | 122° |
| 2026-04-21 13:39 | 38.49645 | 68.72967 | 17996 ft | 424 kts | 122° |
| 2026-04-21 13:39 | 38.48310 | 68.76305 | 17390 ft | 419 kts | 122° |
| 2026-04-21 13:39 | 38.46993 | 68.79596 | 16803 ft | 414 kts | 122° |
| 2026-04-21 13:39 | 38.45690 | 68.82850 | 16232 ft | 409 kts | 122° |
| 2026-04-21 13:40 | 38.44460 | 68.86095 | 15757 ft | 405 kts | 116° |
| 2026-04-21 13:40 | 38.43646 | 68.89540 | 15188 ft | 407 kts | 105° |
| 2026-04-21 13:40 | 38.43348 | 68.93131 | 14612 ft | 408 kts | 94° |
| 2026-04-21 13:40 | 38.43369 | 68.96660 | 14000 ft | 389 kts | 92° |
| 2026-04-21 13:41 | 38.43391 | 69.00023 | 13402 ft | 371 kts | 93° |
| 2026-04-21 13:41 | 38.43409 | 69.03255 | 12837 ft | 361 kts | 92° |
| 2026-04-21 13:41 | 38.43414 | 69.06442 | 12411 ft | 355 kts | 92° |
| 2026-04-21 13:41 | 38.43419 | 69.09457 | 12323 ft | 326 kts | 93° |
| 2026-04-21 13:42 | 38.43423 | 69.12233 | 12225 ft | 301 kts | 93° |
| 2026-04-21 13:42 | 38.43425 | 69.14812 | 12090 ft | 281 kts | 93° |
| 2026-04-21 13:42 | 38.43426 | 69.17223 | 11982 ft | 265 kts | 94° |
| 2026-04-21 13:42 | 38.43426 | 69.19537 | 11857 ft | 257 kts | 93° |
| 2026-04-21 13:43 | 38.43426 | 69.21765 | 11747 ft | 246 kts | 93° |
| 2026-04-21 13:43 | 38.43658 | 69.23911 | 11641 ft | 246 kts | 71° |
| 2026-04-21 13:43 | 38.44599 | 69.25723 | 11525 ft | 248 kts | 42° |
| 2026-04-21 13:43 | 38.46108 | 69.26818 | 11125 ft | 255 kts | 13° |
| 2026-04-21 13:44 | 38.47881 | 69.26994 | 10697 ft | 259 kts | 358° |
| 2026-04-21 13:44 | 38.49688 | 69.26834 | 10276 ft | 263 kts | 346° |
| 2026-04-21 13:44 | 38.51391 | 69.26005 | 9893 ft | 262 kts | 327° |
| 2026-04-21 13:44 | 38.52800 | 69.24539 | 9392 ft | 264 kts | 308° |
| 2026-04-21 13:45 | 38.53786 | 69.22561 | 8731 ft | 266 kts | 290° |
| 2026-04-21 13:45 | 38.54204 | 69.20254 | 8035 ft | 273 kts | 272° |
| 2026-04-21 13:45 | 38.54223 | 69.17809 | 7545 ft | 276 kts | 271° |
| 2026-04-21 13:45 | 38.54235 | 69.15369 | 7177 ft | 274 kts | 271° |
| 2026-04-21 13:46 | 38.54249 | 69.12950 | 6824 ft | 269 kts | 272° |
| 2026-04-21 13:46 | 38.54260 | 69.10630 | 6497 ft | 254 kts | 274° |
| 2026-04-21 13:46 | 38.54270 | 69.08436 | 6193 ft | 241 kts | 274° |
| 2026-04-21 13:46 | 38.54282 | 69.06301 | 5873 ft | 240 kts | 273° |
| 2026-04-21 13:47 | 38.54292 | 69.04188 | 5568 ft | 236 kts | 275° |
| 2026-04-21 13:47 | 38.54301 | 69.02110 | 5261 ft | 231 kts | 274° |
| 2026-04-21 13:47 | 38.54308 | 69.00116 | 4990 ft | 216 kts | 274° |
| 2026-04-21 13:47 | 38.54315 | 68.98273 | 4691 ft | 200 kts | 274° |
| 2026-04-21 13:48 | 38.54322 | 68.96534 | 4415 ft | 190 kts | 274° |
| 2026-04-21 13:48 | 38.54328 | 68.94898 | 4173 ft | 179 kts | 275° |
| 2026-04-21 13:48 | 38.54334 | 68.93361 | 3957 ft | 164 kts | 273° |
| 2026-04-21 13:48 | 38.54338 | 68.91980 | 3746 ft | 148 kts | 276° |
| 2026-04-21 13:49 | 38.54343 | 68.90696 | 3558 ft | 144 kts | 276° |
| 2026-04-21 13:49 | 38.54348 | 68.89428 | 3384 ft | 141 kts | 273° |
| 2026-04-21 13:49 | 38.54350 | 68.88187 | 3210 ft | 143 kts | 276° |
| 2026-04-21 13:49 | 38.54356 | 68.86913 | 3068 ft | 142 kts | 277° |
| 2026-04-21 13:50 | 38.54361 | 68.85681 | 2806 ft | 136 kts | 276° |
| 2026-04-21 13:50 | 38.54359 | 68.84459 | 2699 ft | 138 kts | 273° |
| 2026-04-21 13:50 | 38.54363 | 68.83248 | 2596 ft | 135 kts | 274° |
| 2026-04-21 13:50 | 38.54369 | 68.82198 | 2580 ft | 97 kts | 270° |
| 2026-04-21 13:51 | 38.54371 | 68.81552 | 2579 ft | 48 kts | 270° |
| 2026-04-21 13:51 | 38.54371 | 68.81250 | 2581 ft | 31 kts | 270° |
| 2026-04-21 13:51 | 38.54371 | 68.81000 | 2578 ft | 23 kts | 270° |
| 2026-04-21 13:51 | 38.54372 | 68.80792 | 2578 ft | 22 kts | 270° |
| 2026-04-21 13:52 | 38.54422 | 68.80669 | 2582 ft | 18 kts | 349° |
| 2026-04-21 13:52 | 38.54527 | 68.80670 | 2580 ft | 14 kts | 0° |
| 2026-04-21 13:52 | 38.54630 | 68.80671 | 2577 ft | 14 kts | 0° |
| 2026-04-21 13:52 | 38.54690 | 68.80720 | 2579 ft | 9 kts | 86° |
| 2026-04-21 13:53 | 38.54692 | 68.80793 | 2582 ft | 8 kts | 91° |
| 2026-04-21 13:53 | 38.54691 | 68.80858 | 2582 ft | 7 kts | 90° |
| 2026-04-21 13:53 | 38.54691 | 68.80917 | 2582 ft | 6 kts | 90° |
| 2026-04-21 13:53 | 38.54691 | 68.80969 | 2582 ft | 6 kts | 90° |
| 2026-04-21 13:54 | 38.54691 | 68.81017 | 2582 ft | 5 kts | 90° |
| 2026-04-21 13:54 | 38.54691 | 68.81062 | 2582 ft | 7 kts | 90° |
| 2026-04-21 13:54 | 38.54691 | 68.81149 | 2582 ft | 11 kts | 90° |
| 2026-04-21 13:54 | 38.54690 | 68.81240 | 2582 ft | 10 kts | 91° |
| 2026-04-21 13:55 | 38.54690 | 68.81300 | 2582 ft | 3 kts | 89° |
| 2026-04-21 13:55 | 38.54690 | 68.81323 | 2582 ft | 3 kts | 89° |
| 2026-04-21 13:55 | 38.54690 | 68.81373 | 2582 ft | 9 kts | 90° |
| 2026-04-21 13:55 | 38.54713 | 68.81447 | 2579 ft | 9 kts | 39° |
| 2026-04-21 13:56 | 38.54768 | 68.81477 | 2575 ft | 4 kts | 20° |
| 2026-04-21 13:56 | 38.54782 | 68.81484 | 2578 ft | 1 kts | 20° |
| 2026-04-21 13:56 | 38.54786 | 68.81486 | 2579 ft | 0 kts | 20° |